sensor_id;sensor_type;location;lat;lon;timestamp;P1;durP1;ratioP1;P2;durP2;ratioP2
50341;SDS011;76053;42.682;23.286;2024-03-08T00:00:17;1.98;;;1.50;;
50341;SDS011;76053;42.682;23.286;2024-03-08T00:03:18;1.25;;;0.70;;
50341;SDS011;76053;42.682;23.286;2024-03-08T00:06:18;1.25;;;0.65;;
50341;SDS011;76053;42.682;23.286;2024-03-08T00:09:19;1.92;;;1.17;;
50341;SDS011;76053;42.682;23.286;2024-03-08T00:12:19;1.38;;;0.88;;
50341;SDS011;76053;42.682;23.286;2024-03-08T00:15:19;1.30;;;0.60;;
50341;SDS011;76053;42.682;23.286;2024-03-08T00:18:20;1.17;;;0.70;;
50341;SDS011;76053;42.682;23.286;2024-03-08T00:21:20;1.13;;;0.90;;
50341;SDS011;76053;42.682;23.286;2024-03-08T00:24:21;1.65;;;0.82;;
50341;SDS011;76053;42.682;23.286;2024-03-08T00:27:21;1.02;;;0.63;;
50341;SDS011;76053;42.682;23.286;2024-03-08T00:30:22;1.23;;;0.65;;
50341;SDS011;76053;42.682;23.286;2024-03-08T00:33:23;1.77;;;0.70;;
50341;SDS011;76053;42.682;23.286;2024-03-08T00:36:23;1.95;;;0.60;;
50341;SDS011;76053;42.682;23.286;2024-03-08T00:39:24;1.00;;;0.40;;
50341;SDS011;76053;42.682;23.286;2024-03-08T00:42:24;1.17;;;0.50;;
50341;SDS011;76053;42.682;23.286;2024-03-08T00:45:25;0.70;;;0.28;;
50341;SDS011;76053;42.682;23.286;2024-03-08T00:48:25;1.30;;;0.40;;
50341;SDS011;76053;42.682;23.286;2024-03-08T00:51:25;0.50;;;0.20;;
50341;SDS011;76053;42.682;23.286;2024-03-08T00:54:26;1.00;;;0.30;;
50341;SDS011;76053;42.682;23.286;2024-03-08T00:57:26;0.40;;;0.20;;
50341;SDS011;76053;42.682;23.286;2024-03-08T01:00:26;0.68;;;0.20;;
50341;SDS011;76053;42.682;23.286;2024-03-08T01:03:27;1.75;;;0.40;;
50341;SDS011;76053;42.682;23.286;2024-03-08T01:06:27;0.50;;;0.20;;
50341;SDS011;76053;42.682;23.286;2024-03-08T01:09:28;0.88;;;0.20;;
50341;SDS011;76053;42.682;23.286;2024-03-08T01:12:28;0.70;;;0.25;;
50341;SDS011;76053;42.682;23.286;2024-03-08T01:15:29;0.50;;;0.25;;
50341;SDS011;76053;42.682;23.286;2024-03-08T01:18:29;0.75;;;0.32;;
50341;SDS011;76053;42.682;23.286;2024-03-08T01:21:30;0.52;;;0.28;;
50341;SDS011;76053;42.682;23.286;2024-03-08T01:24:30;1.00;;;0.38;;
50341;SDS011;76053;42.682;23.286;2024-03-08T01:27:31;2.10;;;0.28;;
50341;SDS011;76053;42.682;23.286;2024-03-08T01:30:31;1.40;;;0.40;;
50341;SDS011;76053;42.682;23.286;2024-03-08T01:33:32;2.22;;;0.30;;
50341;SDS011;76053;42.682;23.286;2024-03-08T01:36:32;0.63;;;0.20;;
50341;SDS011;76053;42.682;23.286;2024-03-08T01:39:32;0.60;;;0.30;;
50341;SDS011;76053;42.682;23.286;2024-03-08T01:42:33;1.38;;;0.60;;
50341;SDS011;76053;42.682;23.286;2024-03-08T01:45:33;1.02;;;0.32;;
50341;SDS011;76053;42.682;23.286;2024-03-08T01:48:33;0.80;;;0.32;;
50341;SDS011;76053;42.682;23.286;2024-03-08T01:51:34;0.70;;;0.30;;
50341;SDS011;76053;42.682;23.286;2024-03-08T01:54:34;0.85;;;0.32;;
50341;SDS011;76053;42.682;23.286;2024-03-08T01:57:35;0.70;;;0.30;;
50341;SDS011;76053;42.682;23.286;2024-03-08T02:00:36;0.85;;;0.47;;
50341;SDS011;76053;42.682;23.286;2024-03-08T02:03:40;1.30;;;0.50;;
50341;SDS011;76053;42.682;23.286;2024-03-08T02:06:40;0.65;;;0.30;;
50341;SDS011;76053;42.682;23.286;2024-03-08T02:09:41;0.55;;;0.20;;
50341;SDS011;76053;42.682;23.286;2024-03-08T02:12:41;0.98;;;0.28;;
50341;SDS011;76053;42.682;23.286;2024-03-08T02:15:55;0.80;;;0.30;;
50341;SDS011;76053;42.682;23.286;2024-03-08T02:18:56;1.52;;;0.57;;
50341;SDS011;76053;42.682;23.286;2024-03-08T02:21:57;0.60;;;0.20;;
50341;SDS011;76053;42.682;23.286;2024-03-08T02:25:00;0.60;;;0.22;;
50341;SDS011;76053;42.682;23.286;2024-03-08T02:28:02;0.80;;;0.40;;
50341;SDS011;76053;42.682;23.286;2024-03-08T02:31:03;1.25;;;0.30;;
50341;SDS011;76053;42.682;23.286;2024-03-08T02:34:03;0.70;;;0.20;;
50341;SDS011;76053;42.682;23.286;2024-03-08T02:37:04;2.22;;;0.20;;
50341;SDS011;76053;42.682;23.286;2024-03-08T02:40:04;1.70;;;0.20;;
50341;SDS011;76053;42.682;23.286;2024-03-08T02:43:05;0.70;;;0.30;;
50341;SDS011;76053;42.682;23.286;2024-03-08T02:46:05;0.52;;;0.20;;
50341;SDS011;76053;42.682;23.286;2024-03-08T02:49:05;1.27;;;0.30;;
50341;SDS011;76053;42.682;23.286;2024-03-08T02:52:06;0.60;;;0.30;;
50341;SDS011;76053;42.682;23.286;2024-03-08T02:55:06;0.50;;;0.17;;
50341;SDS011;76053;42.682;23.286;2024-03-08T02:58:07;0.55;;;0.22;;
50341;SDS011;76053;42.682;23.286;2024-03-08T03:01:08;0.75;;;0.20;;
50341;SDS011;76053;42.682;23.286;2024-03-08T03:04:09;0.30;;;0.10;;
50341;SDS011;76053;42.682;23.286;2024-03-08T03:07:09;0.38;;;0.10;;
50341;SDS011;76053;42.682;23.286;2024-03-08T03:10:10;0.30;;;0.10;;
50341;SDS011;76053;42.682;23.286;2024-03-08T03:13:10;0.47;;;0.20;;
50341;SDS011;76053;42.682;23.286;2024-03-08T03:16:10;0.25;;;0.10;;
50341;SDS011;76053;42.682;23.286;2024-03-08T03:19:11;0.57;;;0.20;;
50341;SDS011;76053;42.682;23.286;2024-03-08T03:22:11;0.40;;;0.10;;
50341;SDS011;76053;42.682;23.286;2024-03-08T03:25:12;0.55;;;0.20;;
50341;SDS011;76053;42.682;23.286;2024-03-08T03:28:12;0.30;;;0.10;;
50341;SDS011;76053;42.682;23.286;2024-03-08T03:31:13;0.30;;;0.10;;
50341;SDS011;76053;42.682;23.286;2024-03-08T03:34:13;0.47;;;0.10;;
50341;SDS011;76053;42.682;23.286;2024-03-08T03:37:13;0.40;;;0.17;;
50341;SDS011;76053;42.682;23.286;2024-03-08T03:40:14;0.30;;;0.10;;
50341;SDS011;76053;42.682;23.286;2024-03-08T03:43:15;0.52;;;0.20;;
50341;SDS011;76053;42.682;23.286;2024-03-08T03:46:15;0.60;;;0.10;;
50341;SDS011;76053;42.682;23.286;2024-03-08T03:49:16;0.32;;;0.10;;
50341;SDS011;76053;42.682;23.286;2024-03-08T03:52:16;0.20;;;0.10;;
50341;SDS011;76053;42.682;23.286;2024-03-08T03:55:17;0.57;;;0.10;;
50341;SDS011;76053;42.682;23.286;2024-03-08T03:58:17;0.40;;;0.10;;
50341;SDS011;76053;42.682;23.286;2024-03-08T04:01:18;0.20;;;0.10;;
50341;SDS011;76053;42.682;23.286;2024-03-08T04:04:18;0.60;;;0.10;;
50341;SDS011;76053;42.682;23.286;2024-03-08T04:07:18;0.30;;;0.10;;
50341;SDS011;76053;42.682;23.286;2024-03-08T04:10:19;0.43;;;0.20;;
50341;SDS011;76053;42.682;23.286;2024-03-08T04:13:19;0.82;;;0.13;;
50341;SDS011;76053;42.682;23.286;2024-03-08T04:16:20;0.40;;;0.10;;
50341;SDS011;76053;42.682;23.286;2024-03-08T04:19:20;0.50;;;0.10;;
50341;SDS011;76053;42.682;23.286;2024-03-08T04:22:20;0.40;;;0.32;;
50341;SDS011;76053;42.682;23.286;2024-03-08T04:25:21;0.40;;;0.20;;
50341;SDS011;76053;42.682;23.286;2024-03-08T04:28:21;0.65;;;0.20;;
50341;SDS011;76053;42.682;23.286;2024-03-08T04:31:22;0.50;;;0.10;;
50341;SDS011;76053;42.682;23.286;2024-03-08T04:34:22;0.63;;;0.20;;
50341;SDS011;76053;42.682;23.286;2024-03-08T04:37:23;1.10;;;0.20;;
50341;SDS011;76053;42.682;23.286;2024-03-08T04:40:23;0.75;;;0.20;;
50341;SDS011;76053;42.682;23.286;2024-03-08T04:43:24;0.63;;;0.20;;
50341;SDS011;76053;42.682;23.286;2024-03-08T04:46:25;0.50;;;0.20;;
50341;SDS011;76053;42.682;23.286;2024-03-08T04:49:26;0.40;;;0.20;;
50341;SDS011;76053;42.682;23.286;2024-03-08T04:52:26;1.45;;;0.47;;
50341;SDS011;76053;42.682;23.286;2024-03-08T04:55:26;1.00;;;0.30;;
50341;SDS011;76053;42.682;23.286;2024-03-08T04:58:27;0.75;;;0.22;;
50341;SDS011;76053;42.682;23.286;2024-03-08T05:01:27;0.60;;;0.20;;
50341;SDS011;76053;42.682;23.286;2024-03-08T05:04:28;1.02;;;0.43;;
50341;SDS011;76053;42.682;23.286;2024-03-08T05:07:28;1.00;;;0.30;;
50341;SDS011;76053;42.682;23.286;2024-03-08T05:10:28;0.75;;;0.28;;
50341;SDS011;76053;42.682;23.286;2024-03-08T05:13:30;0.85;;;0.30;;
50341;SDS011;76053;42.682;23.286;2024-03-08T05:16:30;1.00;;;0.40;;
50341;SDS011;76053;42.682;23.286;2024-03-08T05:19:31;1.08;;;0.40;;
50341;SDS011;76053;42.682;23.286;2024-03-08T05:22:31;2.10;;;0.88;;
50341;SDS011;76053;42.682;23.286;2024-03-08T05:25:31;1.40;;;0.60;;
50341;SDS011;76053;42.682;23.286;2024-03-08T05:28:32;1.90;;;0.90;;
50341;SDS011;76053;42.682;23.286;2024-03-08T05:31:43;1.55;;;0.80;;
50341;SDS011;76053;42.682;23.286;2024-03-08T05:34:46;1.13;;;0.75;;
50341;SDS011;76053;42.682;23.286;2024-03-08T05:37:47;1.25;;;0.93;;
50341;SDS011;76053;42.682;23.286;2024-03-08T05:40:47;2.28;;;1.13;;
50341;SDS011;76053;42.682;23.286;2024-03-08T05:43:47;1.77;;;1.30;;
50341;SDS011;76053;42.682;23.286;2024-03-08T05:46:48;1.90;;;1.20;;
50341;SDS011;76053;42.682;23.286;2024-03-08T05:49:48;4.15;;;1.55;;
50341;SDS011;76053;42.682;23.286;2024-03-08T05:52:49;3.10;;;2.05;;
50341;SDS011;76053;42.682;23.286;2024-03-08T05:55:49;1.80;;;1.40;;
50341;SDS011;76053;42.682;23.286;2024-03-08T05:58:50;2.30;;;1.73;;
50341;SDS011;76053;42.682;23.286;2024-03-08T06:01:50;2.20;;;1.45;;
50341;SDS011;76053;42.682;23.286;2024-03-08T06:04:50;2.45;;;2.05;;
50341;SDS011;76053;42.682;23.286;2024-03-08T06:07:51;3.05;;;1.75;;
50341;SDS011;76053;42.682;23.286;2024-03-08T06:10:51;2.78;;;2.17;;
50341;SDS011;76053;42.682;23.286;2024-03-08T06:13:52;2.83;;;1.55;;
50341;SDS011;76053;42.682;23.286;2024-03-08T06:16:52;2.40;;;1.80;;
50341;SDS011;76053;42.682;23.286;2024-03-08T06:19:53;3.65;;;2.22;;
50341;SDS011;76053;42.682;23.286;2024-03-08T06:22:53;2.83;;;2.25;;
50341;SDS011;76053;42.682;23.286;2024-03-08T06:25:53;2.70;;;2.08;;
50341;SDS011;76053;42.682;23.286;2024-03-08T06:28:54;2.80;;;2.38;;
50341;SDS011;76053;42.682;23.286;2024-03-08T06:31:54;3.05;;;2.13;;
50341;SDS011;76053;42.682;23.286;2024-03-08T06:34:55;2.38;;;2.03;;
50341;SDS011;76053;42.682;23.286;2024-03-08T06:37:55;3.97;;;2.85;;
50341;SDS011;76053;42.682;23.286;2024-03-08T06:40:56;2.70;;;1.88;;
50341;SDS011;76053;42.682;23.286;2024-03-08T06:43:56;3.35;;;2.13;;
50341;SDS011;76053;42.682;23.286;2024-03-08T06:46:56;3.22;;;2.50;;
50341;SDS011;76053;42.682;23.286;2024-03-08T06:49:57;2.80;;;2.20;;
50341;SDS011;76053;42.682;23.286;2024-03-08T06:52:57;3.30;;;2.20;;
50341;SDS011;76053;42.682;23.286;2024-03-08T06:55:58;3.22;;;2.25;;
50341;SDS011;76053;42.682;23.286;2024-03-08T06:58:58;2.05;;;1.75;;
50341;SDS011;76053;42.682;23.286;2024-03-08T07:01:59;3.03;;;2.30;;
50341;SDS011;76053;42.682;23.286;2024-03-08T07:04:59;3.25;;;2.47;;
50341;SDS011;76053;42.682;23.286;2024-03-08T07:07:59;3.80;;;2.50;;
50341;SDS011;76053;42.682;23.286;2024-03-08T07:11:00;3.22;;;2.63;;
50341;SDS011;76053;42.682;23.286;2024-03-08T07:14:00;2.90;;;2.20;;
50341;SDS011;76053;42.682;23.286;2024-03-08T07:17:00;2.67;;;2.42;;
50341;SDS011;76053;42.682;23.286;2024-03-08T07:20:01;3.45;;;2.00;;
50341;SDS011;76053;42.682;23.286;2024-03-08T07:23:01;2.88;;;2.05;;
50341;SDS011;76053;42.682;23.286;2024-03-08T07:26:02;4.85;;;2.88;;
50341;SDS011;76053;42.682;23.286;2024-03-08T07:29:02;3.63;;;2.58;;
50341;SDS011;76053;42.682;23.286;2024-03-08T07:32:02;4.75;;;3.45;;
50341;SDS011;76053;42.682;23.286;2024-03-08T07:35:03;4.88;;;2.90;;
50341;SDS011;76053;42.682;23.286;2024-03-08T07:38:07;4.03;;;2.40;;
50341;SDS011;76053;42.682;23.286;2024-03-08T07:41:08;3.17;;;2.50;;
50341;SDS011;76053;42.682;23.286;2024-03-08T07:44:09;4.43;;;3.83;;
50341;SDS011;76053;42.682;23.286;2024-03-08T07:47:09;3.50;;;2.75;;
50341;SDS011;76053;42.682;23.286;2024-03-08T07:50:09;3.88;;;3.25;;
50341;SDS011;76053;42.682;23.286;2024-03-08T07:53:10;5.07;;;3.72;;
50341;SDS011;76053;42.682;23.286;2024-03-08T07:56:10;4.38;;;3.22;;
50341;SDS011;76053;42.682;23.286;2024-03-08T07:59:11;4.80;;;3.78;;
50341;SDS011;76053;42.682;23.286;2024-03-08T08:02:11;5.65;;;4.53;;
50341;SDS011;76053;42.682;23.286;2024-03-08T08:05:12;5.95;;;4.30;;
50341;SDS011;76053;42.682;23.286;2024-03-08T08:08:12;5.65;;;4.35;;
50341;SDS011;76053;42.682;23.286;2024-03-08T08:11:12;5.95;;;3.90;;
50341;SDS011;76053;42.682;23.286;2024-03-08T08:14:13;5.35;;;3.88;;
50341;SDS011;76053;42.682;23.286;2024-03-08T08:17:13;6.20;;;4.50;;
50341;SDS011;76053;42.682;23.286;2024-03-08T08:20:14;6.18;;;4.45;;
50341;SDS011;76053;42.682;23.286;2024-03-08T08:23:14;6.57;;;5.43;;
50341;SDS011;76053;42.682;23.286;2024-03-08T08:26:14;6.85;;;5.65;;
50341;SDS011;76053;42.682;23.286;2024-03-08T08:29:15;9.30;;;7.60;;
50341;SDS011;76053;42.682;23.286;2024-03-08T08:32:15;8.95;;;7.05;;
50341;SDS011;76053;42.682;23.286;2024-03-08T08:35:16;9.32;;;8.18;;
50341;SDS011;76053;42.682;23.286;2024-03-08T08:38:16;9.27;;;7.80;;
50341;SDS011;76053;42.682;23.286;2024-03-08T08:41:16;9.10;;;7.47;;
50341;SDS011;76053;42.682;23.286;2024-03-08T08:44:17;10.23;;;8.38;;
50341;SDS011;76053;42.682;23.286;2024-03-08T08:47:17;10.50;;;8.40;;
50341;SDS011;76053;42.682;23.286;2024-03-08T08:50:18;9.55;;;8.02;;
50341;SDS011;76053;42.682;23.286;2024-03-08T08:53:18;10.20;;;8.13;;
50341;SDS011;76053;42.682;23.286;2024-03-08T08:56:19;10.20;;;8.13;;
50341;SDS011;76053;42.682;23.286;2024-03-08T08:59:19;8.20;;;7.25;;
50341;SDS011;76053;42.682;23.286;2024-03-08T09:02:19;7.53;;;6.63;;
50341;SDS011;76053;42.682;23.286;2024-03-08T09:05:20;8.15;;;6.75;;
50341;SDS011;76053;42.682;23.286;2024-03-08T09:08:20;8.70;;;7.80;;
50341;SDS011;76053;42.682;23.286;2024-03-08T09:11:21;7.53;;;5.60;;
50341;SDS011;76053;42.682;23.286;2024-03-08T09:14:24;5.55;;;4.85;;
50341;SDS011;76053;42.682;23.286;2024-03-08T09:17:24;6.50;;;5.30;;
50341;SDS011;76053;42.682;23.286;2024-03-08T09:20:25;5.95;;;5.15;;
50341;SDS011;76053;42.682;23.286;2024-03-08T09:23:25;5.45;;;4.70;;
50341;SDS011;76053;42.682;23.286;2024-03-08T09:26:25;4.55;;;3.63;;
50341;SDS011;76053;42.682;23.286;2024-03-08T09:29:26;5.28;;;3.80;;
50341;SDS011;76053;42.682;23.286;2024-03-08T09:32:26;5.20;;;3.35;;
50341;SDS011;76053;42.682;23.286;2024-03-08T09:35:27;5.72;;;3.53;;
50341;SDS011;76053;42.682;23.286;2024-03-08T09:38:27;3.70;;;3.33;;
50341;SDS011;76053;42.682;23.286;2024-03-08T09:41:27;5.93;;;3.10;;
50341;SDS011;76053;42.682;23.286;2024-03-08T09:44:28;8.18;;;5.22;;
50341;SDS011;76053;42.682;23.286;2024-03-08T09:47:28;6.50;;;5.45;;
50341;SDS011;76053;42.682;23.286;2024-03-08T09:50:29;5.00;;;3.60;;
50341;SDS011;76053;42.682;23.286;2024-03-08T09:53:29;4.50;;;3.53;;
50341;SDS011;76053;42.682;23.286;2024-03-08T09:56:33;5.03;;;4.40;;
50341;SDS011;76053;42.682;23.286;2024-03-08T09:59:35;4.93;;;3.60;;
50341;SDS011;76053;42.682;23.286;2024-03-08T10:02:36;5.45;;;3.67;;
50341;SDS011;76053;42.682;23.286;2024-03-08T10:05:36;2.75;;;2.10;;
50341;SDS011;76053;42.682;23.286;2024-03-08T10:08:37;3.05;;;2.33;;
50341;SDS011;76053;42.682;23.286;2024-03-08T10:11:37;5.10;;;2.22;;
50341;SDS011;76053;42.682;23.286;2024-03-08T10:14:38;4.05;;;2.92;;
50341;SDS011;76053;42.682;23.286;2024-03-08T10:17:40;2.83;;;2.17;;
50341;SDS011;76053;42.682;23.286;2024-03-08T10:20:40;3.40;;;2.67;;
50341;SDS011;76053;42.682;23.286;2024-03-08T10:23:41;2.67;;;1.50;;
50341;SDS011;76053;42.682;23.286;2024-03-08T10:26:41;1.73;;;1.45;;
50341;SDS011;76053;42.682;23.286;2024-03-08T10:29:52;6.18;;;2.42;;
50341;SDS011;76053;42.682;23.286;2024-03-08T10:32:52;3.33;;;1.90;;
50341;SDS011;76053;42.682;23.286;2024-03-08T10:35:53;2.10;;;1.67;;
50341;SDS011;76053;42.682;23.286;2024-03-08T10:38:54;1.80;;;1.70;;
50341;SDS011;76053;42.682;23.286;2024-03-08T10:41:58;1.55;;;1.13;;
50341;SDS011;76053;42.682;23.286;2024-03-08T10:45:05;1.70;;;1.08;;
50341;SDS011;76053;42.682;23.286;2024-03-08T10:48:24;2.30;;;1.30;;
50341;SDS011;76053;42.682;23.286;2024-03-08T10:51:30;1.73;;;0.90;;
50341;SDS011;76053;42.682;23.286;2024-03-08T10:54:31;1.77;;;1.20;;
50341;SDS011;76053;42.682;23.286;2024-03-08T10:57:33;1.73;;;1.10;;
50341;SDS011;76053;42.682;23.286;2024-03-08T11:00:35;1.02;;;0.85;;
50341;SDS011;76053;42.682;23.286;2024-03-08T11:03:46;1.95;;;1.67;;
50341;SDS011;76053;42.682;23.286;2024-03-08T11:06:49;2.08;;;1.20;;
50341;SDS011;76053;42.682;23.286;2024-03-08T11:09:50;2.95;;;1.00;;
50341;SDS011;76053;42.682;23.286;2024-03-08T11:12:51;2.63;;;0.65;;
50341;SDS011;76053;42.682;23.286;2024-03-08T11:15:52;2.45;;;1.10;;
50341;SDS011;76053;42.682;23.286;2024-03-08T11:22:13;1.80;;;0.70;;
50341;SDS011;76053;42.682;23.286;2024-03-08T11:25:31;2.65;;;0.60;;
50341;SDS011;76053;42.682;23.286;2024-03-08T11:28:32;1.10;;;0.65;;
50341;SDS011;76053;42.682;23.286;2024-03-08T11:31:33;1.40;;;0.70;;
50341;SDS011;76053;42.682;23.286;2024-03-08T11:34:34;1.13;;;0.73;;
50341;SDS011;76053;42.682;23.286;2024-03-08T11:37:34;1.85;;;0.68;;
50341;SDS011;76053;42.682;23.286;2024-03-08T11:40:35;1.30;;;0.70;;
50341;SDS011;76053;42.682;23.286;2024-03-08T11:43:35;1.20;;;0.82;;
50341;SDS011;76053;42.682;23.286;2024-03-08T11:46:36;1.15;;;0.50;;
50341;SDS011;76053;42.682;23.286;2024-03-08T11:49:37;1.60;;;0.60;;
50341;SDS011;76053;42.682;23.286;2024-03-08T11:52:38;1.65;;;1.00;;
50341;SDS011;76053;42.682;23.286;2024-03-08T11:55:38;2.53;;;1.35;;
50341;SDS011;76053;42.682;23.286;2024-03-08T11:58:39;1.40;;;0.55;;
50341;SDS011;76053;42.682;23.286;2024-03-08T12:01:40;0.80;;;0.60;;
50341;SDS011;76053;42.682;23.286;2024-03-08T12:04:40;1.10;;;0.50;;
50341;SDS011;76053;42.682;23.286;2024-03-08T12:07:41;1.92;;;1.25;;
50341;SDS011;76053;42.682;23.286;2024-03-08T12:10:41;1.20;;;0.70;;
50341;SDS011;76053;42.682;23.286;2024-03-08T12:13:42;1.60;;;0.85;;
50341;SDS011;76053;42.682;23.286;2024-03-08T12:16:42;1.40;;;0.90;;
50341;SDS011;76053;42.682;23.286;2024-03-08T12:19:45;2.75;;;1.58;;
50341;SDS011;76053;42.682;23.286;2024-03-08T12:22:47;2.92;;;1.85;;
50341;SDS011;76053;42.682;23.286;2024-03-08T12:25:47;2.63;;;1.70;;
50341;SDS011;76053;42.682;23.286;2024-03-08T12:28:48;2.95;;;1.75;;
50341;SDS011;76053;42.682;23.286;2024-03-08T12:31:50;2.65;;;1.83;;
50341;SDS011;76053;42.682;23.286;2024-03-08T12:34:52;2.33;;;1.95;;
50341;SDS011;76053;42.682;23.286;2024-03-08T12:37:53;1.67;;;1.33;;
50341;SDS011;76053;42.682;23.286;2024-03-08T12:40:55;2.65;;;1.95;;
50341;SDS011;76053;42.682;23.286;2024-03-08T12:43:58;1.67;;;1.40;;
50341;SDS011;76053;42.682;23.286;2024-03-08T12:46:58;3.80;;;1.60;;
50341;SDS011;76053;42.682;23.286;2024-03-08T12:49:59;2.42;;;1.25;;
50341;SDS011;76053;42.682;23.286;2024-03-08T12:52:59;2.45;;;1.23;;
50341;SDS011;76053;42.682;23.286;2024-03-08T12:56:00;1.70;;;1.05;;
50341;SDS011;76053;42.682;23.286;2024-03-08T12:59:01;1.88;;;1.20;;
50341;SDS011;76053;42.682;23.286;2024-03-08T13:02:01;1.95;;;1.23;;
50341;SDS011;76053;42.682;23.286;2024-03-08T13:05:01;1.52;;;1.05;;
50341;SDS011;76053;42.682;23.286;2024-03-08T13:08:02;1.40;;;0.95;;
50341;SDS011;76053;42.682;23.286;2024-03-08T13:11:02;1.67;;;1.02;;
50341;SDS011;76053;42.682;23.286;2024-03-08T13:14:03;1.73;;;0.90;;
50341;SDS011;76053;42.682;23.286;2024-03-08T13:17:04;1.60;;;0.73;;
50341;SDS011;76053;42.682;23.286;2024-03-08T13:20:04;1.70;;;1.35;;
50341;SDS011;76053;42.682;23.286;2024-03-08T13:23:06;2.97;;;1.15;;
50341;SDS011;76053;42.682;23.286;2024-03-08T13:26:09;2.53;;;1.27;;
50341;SDS011;76053;42.682;23.286;2024-03-08T13:29:11;2.03;;;1.17;;
50341;SDS011;76053;42.682;23.286;2024-03-08T13:32:11;1.20;;;0.80;;
50341;SDS011;76053;42.682;23.286;2024-03-08T13:35:11;1.98;;;1.00;;
50341;SDS011;76053;42.682;23.286;2024-03-08T13:38:12;1.63;;;0.95;;
50341;SDS011;76053;42.682;23.286;2024-03-08T13:41:12;1.17;;;0.65;;
50341;SDS011;76053;42.682;23.286;2024-03-08T13:44:14;1.63;;;0.90;;
50341;SDS011;76053;42.682;23.286;2024-03-08T13:47:15;1.90;;;0.98;;
50341;SDS011;76053;42.682;23.286;2024-03-08T13:50:18;1.52;;;0.88;;
50341;SDS011;76053;42.682;23.286;2024-03-08T13:53:18;1.35;;;1.02;;
50341;SDS011;76053;42.682;23.286;2024-03-08T13:56:19;1.00;;;0.80;;
50341;SDS011;76053;42.682;23.286;2024-03-08T13:59:19;2.22;;;0.80;;
50341;SDS011;76053;42.682;23.286;2024-03-08T14:02:20;1.48;;;0.90;;
50341;SDS011;76053;42.682;23.286;2024-03-08T14:05:21;1.70;;;0.77;;
50341;SDS011;76053;42.682;23.286;2024-03-08T14:08:21;1.67;;;1.23;;
50341;SDS011;76053;42.682;23.286;2024-03-08T14:11:21;1.88;;;1.02;;
50341;SDS011;76053;42.682;23.286;2024-03-08T14:14:22;1.67;;;1.10;;
50341;SDS011;76053;42.682;23.286;2024-03-08T14:17:22;1.75;;;1.65;;
50341;SDS011;76053;42.682;23.286;2024-03-08T14:20:23;1.80;;;1.23;;
50341;SDS011;76053;42.682;23.286;2024-03-08T14:23:24;2.08;;;1.35;;
50341;SDS011;76053;42.682;23.286;2024-03-08T14:26:24;1.75;;;1.17;;
50341;SDS011;76053;42.682;23.286;2024-03-08T14:29:25;2.30;;;1.50;;
50341;SDS011;76053;42.682;23.286;2024-03-08T14:32:25;1.98;;;1.20;;
50341;SDS011;76053;42.682;23.286;2024-03-08T14:35:26;2.45;;;1.00;;
50341;SDS011;76053;42.682;23.286;2024-03-08T14:38:26;2.95;;;1.27;;
50341;SDS011;76053;42.682;23.286;2024-03-08T14:41:27;1.13;;;0.60;;
50341;SDS011;76053;42.682;23.286;2024-03-08T14:44:27;2.03;;;1.40;;
50341;SDS011;76053;42.682;23.286;2024-03-08T14:47:28;1.90;;;0.93;;
50341;SDS011;76053;42.682;23.286;2024-03-08T14:50:28;1.60;;;1.02;;
50341;SDS011;76053;42.682;23.286;2024-03-08T14:53:28;3.42;;;1.83;;
50341;SDS011;76053;42.682;23.286;2024-03-08T14:56:29;2.22;;;1.65;;
50341;SDS011;76053;42.682;23.286;2024-03-08T14:59:29;2.08;;;1.73;;
50341;SDS011;76053;42.682;23.286;2024-03-08T15:02:30;2.35;;;1.10;;
50341;SDS011;76053;42.682;23.286;2024-03-08T15:05:30;2.75;;;1.50;;
50341;SDS011;76053;42.682;23.286;2024-03-08T15:08:30;2.08;;;1.25;;
50341;SDS011;76053;42.682;23.286;2024-03-08T15:11:31;2.03;;;1.60;;
50341;SDS011;76053;42.682;23.286;2024-03-08T15:14:31;2.90;;;1.63;;
50341;SDS011;76053;42.682;23.286;2024-03-08T15:17:32;1.63;;;1.15;;
50341;SDS011;76053;42.682;23.286;2024-03-08T15:20:32;1.92;;;1.50;;
50341;SDS011;76053;42.682;23.286;2024-03-08T15:23:35;1.40;;;0.95;;
50341;SDS011;76053;42.682;23.286;2024-03-08T15:26:36;3.72;;;1.50;;
50341;SDS011;76053;42.682;23.286;2024-03-08T15:29:37;1.65;;;1.13;;
50341;SDS011;76053;42.682;23.286;2024-03-08T15:32:37;2.55;;;1.40;;
50341;SDS011;76053;42.682;23.286;2024-03-08T15:35:37;2.08;;;1.25;;
50341;SDS011;76053;42.682;23.286;2024-03-08T15:38:38;2.22;;;1.30;;
50341;SDS011;76053;42.682;23.286;2024-03-08T15:41:38;1.65;;;1.52;;
50341;SDS011;76053;42.682;23.286;2024-03-08T15:44:40;3.15;;;1.88;;
50341;SDS011;76053;42.682;23.286;2024-03-08T15:47:40;3.05;;;2.10;;
50341;SDS011;76053;42.682;23.286;2024-03-08T15:50:41;2.40;;;1.38;;
50341;SDS011;76053;42.682;23.286;2024-03-08T15:53:41;3.17;;;2.53;;
50341;SDS011;76053;42.682;23.286;2024-03-08T15:56:41;2.40;;;1.95;;
50341;SDS011;76053;42.682;23.286;2024-03-08T15:59:42;2.85;;;2.38;;
50341;SDS011;76053;42.682;23.286;2024-03-08T16:02:42;4.03;;;1.85;;
50341;SDS011;76053;42.682;23.286;2024-03-08T16:05:43;3.05;;;2.47;;
50341;SDS011;76053;42.682;23.286;2024-03-08T16:08:44;3.50;;;2.42;;
50341;SDS011;76053;42.682;23.286;2024-03-08T16:11:44;2.63;;;2.03;;
50341;SDS011;76053;42.682;23.286;2024-03-08T16:14:45;3.97;;;2.20;;
50341;SDS011;76053;42.682;23.286;2024-03-08T16:17:46;2.85;;;2.35;;
50341;SDS011;76053;42.682;23.286;2024-03-08T16:20:47;2.92;;;2.60;;
50341;SDS011;76053;42.682;23.286;2024-03-08T16:23:49;2.88;;;2.35;;
50341;SDS011;76053;42.682;23.286;2024-03-08T16:26:49;4.22;;;2.15;;
50341;SDS011;76053;42.682;23.286;2024-03-08T16:29:50;3.28;;;2.80;;
50341;SDS011;76053;42.682;23.286;2024-03-08T16:32:50;3.00;;;2.58;;
50341;SDS011;76053;42.682;23.286;2024-03-08T16:35:51;3.65;;;2.65;;
50341;SDS011;76053;42.682;23.286;2024-03-08T16:38:51;2.67;;;2.25;;
50341;SDS011;76053;42.682;23.286;2024-03-08T16:41:52;3.03;;;2.22;;
50341;SDS011;76053;42.682;23.286;2024-03-08T16:44:52;4.65;;;3.03;;
50341;SDS011;76053;42.682;23.286;2024-03-08T16:47:52;2.90;;;2.42;;
50341;SDS011;76053;42.682;23.286;2024-03-08T16:50:53;4.20;;;3.03;;
50341;SDS011;76053;42.682;23.286;2024-03-08T16:53:53;4.38;;;3.28;;
50341;SDS011;76053;42.682;23.286;2024-03-08T16:56:54;5.03;;;3.22;;
50341;SDS011;76053;42.682;23.286;2024-03-08T16:59:54;4.75;;;3.38;;
50341;SDS011;76053;42.682;23.286;2024-03-08T17:02:55;5.63;;;3.85;;
50341;SDS011;76053;42.682;23.286;2024-03-08T17:06:01;4.03;;;3.20;;
50341;SDS011;76053;42.682;23.286;2024-03-08T17:09:02;5.63;;;4.00;;
50341;SDS011;76053;42.682;23.286;2024-03-08T17:12:02;3.85;;;3.50;;
50341;SDS011;76053;42.682;23.286;2024-03-08T17:15:03;3.53;;;3.17;;
50341;SDS011;76053;42.682;23.286;2024-03-08T17:18:04;4.53;;;2.92;;
50341;SDS011;76053;42.682;23.286;2024-03-08T17:21:04;4.88;;;4.15;;
50341;SDS011;76053;42.682;23.286;2024-03-08T17:24:05;4.38;;;3.15;;
50341;SDS011;76053;42.682;23.286;2024-03-08T17:27:05;3.83;;;2.97;;
50341;SDS011;76053;42.682;23.286;2024-03-08T17:30:06;3.63;;;2.60;;
50341;SDS011;76053;42.682;23.286;2024-03-08T17:33:07;5.10;;;3.15;;
50341;SDS011;76053;42.682;23.286;2024-03-08T17:36:08;5.30;;;3.60;;
50341;SDS011;76053;42.682;23.286;2024-03-08T17:39:08;3.88;;;2.83;;
50341;SDS011;76053;42.682;23.286;2024-03-08T17:42:09;4.93;;;2.78;;
50341;SDS011;76053;42.682;23.286;2024-03-08T17:45:09;4.57;;;3.10;;
50341;SDS011;76053;42.682;23.286;2024-03-08T17:48:09;4.57;;;3.30;;
50341;SDS011;76053;42.682;23.286;2024-03-08T17:51:10;5.47;;;3.20;;
50341;SDS011;76053;42.682;23.286;2024-03-08T17:54:10;4.00;;;3.20;;